Time;durP1;ratioP1;P1;durP2;ratioP2;P2;SDS_P1;SDS_P2;PMS_P1;PMS_P2;Temp;Humidity;BMP_temperature;BMP_pressure;BME280_temperature;BME280_humidity;BME280_pressure;Samples;Min_cycle;Max_cycle;Signal;HPM_P1;HPM_P2
2023/02/12 00:00:06;;;;;;;10.40;3.40;;;17.60;55.40;;;;;;4993386;28;20453;-75
2023/02/12 00:02:34;;;;;;;6.00;3.10;;;17.60;55.40;;;;;;4991231;28;20473;-76
2023/02/12 00:05:02;;;;;;;5.40;3.10;;;17.60;55.40;;;;;;4990828;28;20551;-75
2023/02/12 00:07:31;;;;;;;5.40;3.20;;;17.60;55.40;;;;;;4988918;28;20544;-75
2023/02/12 00:09:59;;;;;;;6.27;3.50;;;17.60;55.50;;;;;;4997658;28;20480;-75
2023/02/12 00:12:27;;;;;;;5.57;3.27;;;17.60;55.50;;;;;;4985289;28;20500;-74
2023/02/12 00:14:55;;;;;;;4.67;3.23;;;17.60;55.50;;;;;;4993933;28;20472;-75
2023/02/12 00:17:24;;;;;;;4.60;3.47;;;17.60;55.50;;;;;;4987471;28;20468;-75
2023/02/12 00:19:53;;;;;;;8.10;2.80;;;17.60;55.40;;;;;;4989352;28;20457;-75
2023/02/12 00:22:21;;;;;;;6.73;3.30;;;17.60;55.50;;;;;;4990805;28;20553;-74
2023/02/12 00:24:49;;;;;;;5.57;3.10;;;17.60;55.50;;;;;;4988038;28;20464;-74
2023/02/12 00:27:17;;;;;;;7.03;3.43;;;17.60;55.50;;;;;;4991930;28;20484;-74
2023/02/12 00:29:46;;;;;;;4.47;3.00;;;17.60;55.50;;;;;;4993088;28;20468;-74
2023/02/12 00:32:18;;;;;;;8.27;3.70;;;17.60;55.40;;;;;;4996852;28;20473;-75
2023/02/12 00:34:48;;;;;;;7.13;3.60;;;17.50;55.50;;;;;;4994467;28;20441;-74
2023/02/12 00:37:15;;;;;;;5.87;3.33;;;17.50;55.50;;;;;;4993926;28;20457;-74
2023/02/12 00:39:43;;;;;;;5.00;2.83;;;17.50;55.50;;;;;;4989681;28;20453;-74
2023/02/12 00:42:11;;;;;;;4.30;3.00;;;17.50;55.50;;;;;;4993823;28;20476;-74
2023/02/12 00:44:39;;;;;;;6.00;3.30;;;17.50;55.40;;;;;;4992928;28;20488;-74
2023/02/12 00:47:07;;;;;;;5.10;2.97;;;17.50;55.40;;;;;;4993938;28;20460;-74
2023/02/12 00:49:35;;;;;;;5.00;3.40;;;17.50;55.50;;;;;;4981945;28;20453;-74
2023/02/12 00:52:05;;;;;;;6.40;3.17;;;17.50;55.50;;;;;;4982397;28;20462;-74
2023/02/12 00:54:33;;;;;;;5.17;3.50;;;17.50;55.40;;;;;;4985534;28;20449;-74
2023/02/12 00:57:01;;;;;;;5.43;3.60;;;17.50;55.60;;;;;;4994026;28;20664;-75
2023/02/12 00:59:29;;;;;;;6.57;3.33;;;17.50;55.50;;;;;;4988819;28;20453;-73
2023/02/12 01:01:57;;;;;;;4.57;3.50;;;17.50;55.60;;;;;;4995827;28;20488;-74
2023/02/12 01:04:25;;;;;;;5.57;3.40;;;17.50;55.60;;;;;;4992431;28;20461;-74
2023/02/12 01:06:53;;;;;;;4.37;3.23;;;17.50;55.60;;;;;;4985564;28;20453;-74
2023/02/12 01:09:22;;;;;;;7.70;3.47;;;17.50;55.60;;;;;;4993493;28;20460;-75
2023/02/12 01:11:50;;;;;;;3.80;2.70;;;17.50;55.50;;;;;;4992588;28;20504;-74
2023/02/12 01:14:18;;;;;;;4.93;3.40;;;17.50;55.60;;;;;;4992571;28;20541;-73
2023/02/12 01:16:46;;;;;;;6.60;3.47;;;17.50;55.60;;;;;;4995830;28;20456;-74
2023/02/12 01:19:14;;;;;;;5.13;2.83;;;17.50;55.60;;;;;;4992937;28;20480;-74
2023/02/12 01:21:42;;;;;;;4.37;3.73;;;17.40;55.60;;;;;;4989117;28;20473;-74
2023/02/12 01:24:10;;;;;;;6.07;3.70;;;17.40;55.50;;;;;;4988707;28;20453;-74
2023/02/12 01:26:40;;;;;;;4.90;2.90;;;17.40;55.50;;;;;;4992078;28;20472;-74
2023/02/12 01:29:08;;;;;;;8.93;3.60;;;17.40;55.50;;;;;;4987026;28;20437;-74
2023/02/12 01:31:37;;;;;;;4.17;3.20;;;17.40;55.50;;;;;;4990982;28;20476;-74
2023/02/12 01:34:05;;;;;;;3.60;3.23;;;17.40;55.60;;;;;;4989852;28;20460;-74
2023/02/12 01:36:33;;;;;;;5.13;3.13;;;17.40;55.60;;;;;;4988328;28;20453;-74
2023/02/12 01:39:02;;;;;;;6.40;3.10;;;17.40;55.60;;;;;;4990632;28;20458;-75
2023/02/12 01:41:31;;;;;;;6.93;3.37;;;17.40;55.60;;;;;;4993492;28;21100;-74
2023/02/12 01:44:12;;;;;;;9.77;6.20;;;17.40;55.50;;;;;;4992505;28;20460;-74
2023/02/12 01:46:40;;;;;;;17.30;9.20;;;17.40;55.50;;;;;;4987988;28;20491;-74
2023/02/12 01:49:09;;;;;;;15.63;8.27;;;17.40;55.60;;;;;;4991421;28;20488;-74
2023/02/12 01:51:37;;;;;;;13.57;8.00;;;17.40;55.70;;;;;;4991906;28;20477;-74
2023/02/12 01:54:06;;;;;;;12.63;7.90;;;17.40;55.60;;;;;;4997575;28;20999;-74
2023/02/12 01:56:35;;;;;;;11.33;7.53;;;17.40;55.70;;;;;;4987188;28;20474;-74
2023/02/12 01:59:03;;;;;;;11.73;7.43;;;17.40;55.70;;;;;;4989042;28;20460;-75
2023/02/12 02:01:32;;;;;;;13.70;7.80;;;17.40;55.70;;;;;;4990479;28;20473;-74
2023/02/12 02:04:02;;;;;;;11.17;7.40;;;17.40;55.60;;;;;;4992473;28;20465;-74
2023/02/12 02:06:32;;;;;;;12.60;7.10;;;17.40;55.60;;;;;;4986606;28;20484;-75
2023/02/12 02:09:00;;;;;;;11.20;7.10;;;17.40;55.60;;;;;;4992600;28;20441;-74
2023/02/12 02:14:32;;;;;;;10.33;7.07;;;17.30;55.60;;;;;;4989634;28;20457;-75
2023/02/12 02:17:07;;;;;;;16.00;6.93;;;17.30;55.70;;;;;;4990858;28;20488;-74
2023/02/12 02:19:57;;;;;;;10.10;6.90;;;17.30;55.70;;;;;;4985994;28;20460;-75
2023/02/12 02:22:28;;;;;;;9.40;7.03;;;17.30;55.60;;;;;;4982170;28;20484;-74
2023/02/12 02:25:14;;;;;;;9.60;6.90;;;17.30;55.70;;;;;;4987856;28;20456;-74
2023/02/12 02:27:44;;;;;;;11.70;6.53;;;17.30;55.60;;;;;;4990794;28;20477;-74
2023/02/12 02:30:33;;;;;;;11.50;7.17;;;17.30;55.70;;;;;;4985271;28;20461;-74
2023/02/12 02:33:10;;;;;;;10.63;7.20;;;17.40;55.70;;;;;;4982785;28;20480;-74
2023/02/12 02:35:40;;;;;;;8.70;6.70;;;17.30;55.70;;;;;;4986270;28;20452;-75
2023/02/12 02:38:16;;;;;;;10.70;6.63;;;17.30;55.80;;;;;;4990781;28;20453;-75
2023/02/12 02:40:46;;;;;;;10.57;6.80;;;17.30;55.70;;;;;;4987133;28;20537;-75
2023/02/12 02:43:16;;;;;;;11.57;6.70;;;17.30;55.80;;;;;;4988634;28;20488;-73
2023/02/12 02:45:46;;;;;;;10.80;6.13;;;17.30;55.70;;;;;;4989126;28;20477;-74
2023/02/12 02:48:15;;;;;;;9.27;6.23;;;17.30;55.70;;;;;;4979862;28;20464;-74
2023/02/12 02:50:46;;;;;;;9.17;6.40;;;17.30;55.70;;;;;;4982985;28;20476;-75
2023/02/12 02:53:16;;;;;;;12.80;6.40;;;17.30;55.70;;;;;;4988331;28;20468;-74
2023/02/12 02:55:45;;;;;;;9.47;6.10;;;17.30;55.60;;;;;;4987256;28;20472;-75
2023/02/12 02:58:14;;;;;;;9.30;6.20;;;17.30;55.60;;;;;;4986156;28;20462;-74
2023/02/12 03:00:46;;;;;;;8.47;5.63;;;17.30;55.70;;;;;;4987625;28;20453;-73
2023/02/12 03:03:18;;;;;;;10.20;6.33;;;17.30;55.70;;;;;;4988096;28;20477;-75
2023/02/12 03:05:47;;;;;;;6.33;5.53;;;17.30;55.80;;;;;;4990636;28;20469;-75
2023/02/12 03:08:16;;;;;;;9.23;5.93;;;17.30;55.80;;;;;;4990894;28;20453;-75
2023/02/12 03:10:45;;;;;;;7.00;5.67;;;17.30;55.80;;;;;;4991251;28;20473;-75
2023/02/12 03:13:16;;;;;;;8.30;5.07;;;17.30;55.60;;;;;;4993363;28;20465;-75
2023/02/12 03:15:47;;;;;;;9.23;5.70;;;17.30;55.70;;;;;;4994934;28;20500;-74
2023/02/12 03:18:17;;;;;;;8.47;5.83;;;17.30;55.70;;;;;;4991476;28;20441;-75
2023/02/12 03:20:46;;;;;;;9.17;5.83;;;17.20;55.60;;;;;;4991217;28;20440;-74
2023/02/12 03:23:17;;;;;;;7.90;5.53;;;17.20;55.70;;;;;;4987302;28;20477;-75
2023/02/12 03:25:48;;;;;;;11.70;6.30;;;17.30;55.70;;;;;;4990810;28;20481;-74
2023/02/12 03:28:17;;;;;;;8.33;5.87;;;17.30;55.70;;;;;;4994300;28;20457;-74
2023/02/12 03:30:49;;;;;;;13.30;5.90;;;17.30;55.70;;;;;;4995861;28;20463;-73
2023/02/12 03:33:21;;;;;;;8.47;5.53;;;17.20;55.60;;;;;;4992117;28;20504;-74
2023/02/12 03:35:54;;;;;;;9.20;5.70;;;17.20;55.80;;;;;;4989967;28;20464;-73
2023/02/12 03:38:28;;;;;;;5.77;4.87;;;17.20;55.60;;;;;;4997959;28;20499;-74
2023/02/12 03:40:58;;;;;;;8.33;5.83;;;17.20;55.80;;;;;;4992670;28;20469;-75
2023/02/12 03:43:29;;;;;;;7.63;5.10;;;17.20;55.70;;;;;;4992751;28;20473;-74
2023/02/12 03:45:59;;;;;;;7.10;5.10;;;17.20;55.70;;;;;;4990361;28;20488;-74
2023/02/12 03:48:28;;;;;;;6.30;4.90;;;17.20;55.70;;;;;;4991044;28;20460;-74
2023/02/12 03:50:57;;;;;;;11.73;5.30;;;17.20;55.80;;;;;;4993464;28;20461;-74
2023/02/12 03:53:25;;;;;;;8.27;5.47;;;17.20;55.70;;;;;;4993567;28;20473;-73
2023/02/12 03:55:56;;;;;;;8.53;5.47;;;17.20;55.80;;;;;;4992173;28;20469;-75
2023/02/12 03:58:25;;;;;;;6.90;4.90;;;17.20;55.70;;;;;;4994177;28;20445;-72
2023/02/12 04:00:53;;;;;;;6.67;4.90;;;17.20;55.70;;;;;;4989998;28;20453;-74
2023/02/12 04:03:22;;;;;;;6.57;4.80;;;17.20;55.70;;;;;;4988709;28;20532;-74
2023/02/12 04:05:50;;;;;;;7.03;5.13;;;17.20;55.70;;;;;;4993873;28;20461;-74
2023/02/12 04:08:18;;;;;;;8.90;4.77;;;17.20;55.80;;;;;;4987741;28;20462;-74
2023/02/12 04:10:52;;;;;;;8.03;5.20;;;17.20;55.70;;;;;;4986146;28;20470;-74
2023/02/12 04:13:23;;;;;;;5.43;4.90;;;17.20;55.70;;;;;;4987958;28;20473;-74
2023/02/12 04:16:05;;;;;;;5.83;4.50;;;17.20;55.70;;;;;;4993878;28;20449;-75
2023/02/12 04:18:38;;;;;;;7.73;4.90;;;17.10;55.70;;;;;;4998322;28;20441;-74
2023/02/12 04:21:09;;;;;;;7.70;5.30;;;17.20;55.80;;;;;;4991803;28;20457;-73
2023/02/12 04:23:44;;;;;;;6.40;4.80;;;17.20;55.80;;;;;;4991124;28;20492;-73
2023/02/12 04:26:18;;;;;;;6.93;4.80;;;17.20;55.70;;;;;;4990023;28;20472;-74
2023/02/12 04:28:54;;;;;;;6.87;4.80;;;17.20;55.90;;;;;;4987459;28;20830;-74
2023/02/12 04:31:24;;;;;;;6.10;4.30;;;17.10;55.70;;;;;;4985675;28;20461;-73
2023/02/12 04:33:58;;;;;;;6.33;4.60;;;17.20;56.00;;;;;;4992931;28;20544;-73
2023/02/12 04:36:27;;;;;;;6.67;4.60;;;17.10;55.70;;;;;;4991552;28;20464;-74
2023/02/12 04:38:57;;;;;;;6.93;4.60;;;17.20;55.90;;;;;;4988714;28;20475;-74
2023/02/12 04:41:25;;;;;;;5.97;4.67;;;17.20;55.90;;;;;;4991760;28;20477;-72
2023/02/12 04:43:53;;;;;;;8.00;4.90;;;17.20;55.80;;;;;;4990035;28;20458;-75
2023/02/12 04:46:20;;;;;;;6.07;4.60;;;17.20;55.90;;;;;;4992920;28;20469;-73
2023/02/12 04:48:52;;;;;;;5.10;3.97;;;17.10;55.70;;;;;;4989130;28;20458;-75
2023/02/12 04:51:21;;;;;;;5.53;4.27;;;17.10;55.80;;;;;;4986341;28;20461;-73
2023/02/12 04:53:49;;;;;;;5.03;4.30;;;17.10;55.90;;;;;;4991771;28;20468;-74
2023/02/12 04:56:17;;;;;;;4.50;4.10;;;17.10;55.90;;;;;;4992918;28;20481;-75
2023/02/12 04:58:45;;;;;;;5.17;4.43;;;17.10;56.00;;;;;;4988278;28;20464;-75
2023/02/12 05:01:13;;;;;;;6.63;4.30;;;17.10;55.80;;;;;;4992367;28;20453;-75
2023/02/12 05:03:41;;;;;;;7.00;4.60;;;17.10;55.80;;;;;;4993033;28;20453;-75
2023/02/12 05:06:09;;;;;;;8.97;4.70;;;17.10;55.90;;;;;;4992285;28;20464;-74
2023/02/12 05:08:38;;;;;;;4.43;3.90;;;17.10;55.80;;;;;;4991559;28;20456;-73
2023/02/12 05:11:06;;;;;;;4.97;4.47;;;17.20;55.90;;;;;;4991246;28;20484;-75
2023/02/12 05:13:34;;;;;;;4.47;3.67;;;17.10;55.80;;;;;;4988484;28;20477;-75
2023/02/12 05:16:03;;;;;;;7.27;4.03;;;17.10;55.90;;;;;;4992338;28;20453;-74
2023/02/12 05:18:32;;;;;;;7.30;4.47;;;17.10;55.80;;;;;;4988641;28;20449;-75
2023/02/12 05:21:00;;;;;;;4.60;3.90;;;17.10;55.70;;;;;;4984175;28;20484;-74
2023/02/12 05:23:29;;;;;;;5.93;4.23;;;17.10;55.80;;;;;;4992218;28;20473;-75
2023/02/12 05:25:59;;;;;;;5.87;3.80;;;17.10;55.90;;;;;;4990183;28;20484;-75
2023/02/12 05:28:27;;;;;;;5.33;4.03;;;17.10;55.90;;;;;;4992104;28;20475;-74
2023/02/12 05:30:55;;;;;;;7.10;4.47;;;17.10;55.90;;;;;;4992161;28;20465;-74
2023/02/12 05:33:23;;;;;;;6.30;4.63;;;17.10;55.90;;;;;;4992342;28;20484;-74
2023/02/12 05:35:51;;;;;;;4.20;3.80;;;17.10;55.90;;;;;;4991381;28;20457;-75
2023/02/12 05:38:19;;;;;;;7.40;4.23;;;17.10;55.90;;;;;;4989290;28;21008;-75
2023/02/12 05:40:47;;;;;;;5.50;3.90;;;17.10;55.90;;;;;;4984401;28;20484;-74
2023/02/12 05:43:16;;;;;;;5.93;4.20;;;17.10;55.90;;;;;;4991690;28;21005;-74
2023/02/12 05:45:44;;;;;;;5.13;4.03;;;17.10;55.90;;;;;;4988131;28;20449;-75
2023/02/12 05:48:12;;;;;;;7.80;4.00;;;17.10;55.80;;;;;;4991307;28;20485;-75
2023/02/12 05:50:40;;;;;;;4.13;3.73;;;17.10;56.00;;;;;;4985224;28;20511;-74
2023/02/12 05:53:08;;;;;;;6.07;4.00;;;17.10;56.00;;;;;;4992497;28;20477;-75
2023/02/12 05:55:36;;;;;;;4.27;3.87;;;17.10;55.90;;;;;;4992270;28;20437;-75
2023/02/12 05:58:03;;;;;;;7.37;4.67;;;17.10;55.90;;;;;;4987729;28;20449;-75
2023/02/12 06:00:33;;;;;;;4.50;4.00;;;17.00;56.60;;;;;;4991449;28;20449;-74
2023/02/12 06:03:01;;;;;;;5.93;4.23;;;17.10;56.00;;;;;;4992292;28;20480;-75
2023/02/12 06:05:29;;;;;;;5.43;4.00;;;17.00;55.90;;;;;;4990277;28;20457;-74
2023/02/12 06:07:56;;;;;;;4.13;3.67;;;17.00;55.90;;;;;;4991682;28;20477;-75
2023/02/12 06:10:25;;;;;;;4.20;3.63;;;17.00;55.90;;;;;;4988447;28;20866;-74
2023/02/12 06:12:54;;;;;;;4.83;3.67;;;17.00;56.00;;;;;;4990419;28;20592;-75
2023/02/12 06:15:22;;;;;;;4.97;4.17;;;17.00;55.90;;;;;;4988883;28;20456;-75
2023/02/12 06:17:51;;;;;;;4.37;3.70;;;17.00;55.90;;;;;;4987946;28;20443;-75
2023/02/12 06:20:19;;;;;;;5.03;3.90;;;17.10;56.00;;;;;;4989335;28;20453;-74
2023/02/12 06:22:47;;;;;;;4.63;3.67;;;17.00;55.90;;;;;;4987489;28;20504;-74
2023/02/12 06:25:15;;;;;;;4.10;3.73;;;17.10;56.00;;;;;;4989837;28;20453;-75
2023/02/12 06:27:43;;;;;;;5.40;4.20;;;17.00;56.00;;;;;;4989732;28;20473;-75
2023/02/12 06:30:13;;;;;;;5.00;3.90;;;17.00;56.00;;;;;;4986712;28;20454;-75
2023/02/12 06:32:40;;;;;;;5.00;3.50;;;17.00;56.00;;;;;;4991369;28;20480;-75
2023/02/12 06:35:10;;;;;;;4.87;3.80;;;17.00;56.00;;;;;;4991829;28;20453;-75
2023/02/12 06:37:38;;;;;;;5.00;3.77;;;17.00;55.90;;;;;;4989107;28;20446;-74
2023/02/12 06:40:07;;;;;;;5.87;4.13;;;17.00;56.10;;;;;;4989655;28;20453;-75
2023/02/12 06:42:35;;;;;;;5.30;4.10;;;17.00;56.10;;;;;;4986674;28;20474;-75
2023/02/12 06:45:03;;;;;;;4.43;4.00;;;17.00;56.00;;;;;;4990216;28;20465;-75
2023/02/12 06:47:31;;;;;;;5.20;4.23;;;17.00;55.90;;;;;;4990278;28;20481;-75
2023/02/12 06:49:59;;;;;;;3.40;2.93;;;17.00;55.90;;;;;;4990832;28;20472;-75
2023/02/12 06:52:29;;;;;;;4.17;3.60;;;17.00;56.10;;;;;;4992963;28;20475;-75
2023/02/12 06:54:56;;;;;;;5.43;3.80;;;17.00;56.20;;;;;;4994255;28;20456;-76
2023/02/12 06:57:24;;;;;;;5.33;3.97;;;17.00;56.10;;;;;;4991789;28;20464;-76
2023/02/12 06:59:52;;;;;;;4.63;3.63;;;17.00;56.60;;;;;;4993872;28;20464;-75
2023/02/12 07:02:20;;;;;;;4.40;3.80;;;17.00;56.10;;;;;;4991912;28;20473;-75
2023/02/12 07:04:48;;;;;;;4.57;3.87;;;17.00;56.10;;;;;;4992166;28;20454;-75
2023/02/12 07:07:16;;;;;;;3.63;3.30;;;17.00;56.00;;;;;;4993678;28;20444;-75
2023/02/12 07:09:45;;;;;;;4.60;3.67;;;17.00;56.00;;;;;;4995134;28;20456;-75
2023/02/12 07:12:13;;;;;;;4.30;3.77;;;17.00;56.10;;;;;;4994489;28;20468;-75
2023/02/12 07:14:41;;;;;;;4.93;3.70;;;17.00;56.10;;;;;;4994603;28;20459;-75
2023/02/12 07:17:10;;;;;;;3.73;3.40;;;17.00;56.10;;;;;;4995115;28;20445;-75
2023/02/12 07:19:37;;;;;;;3.57;3.27;;;17.00;56.10;;;;;;4988704;28;20526;-76
2023/02/12 07:22:06;;;;;;;4.73;4.27;;;17.00;56.00;;;;;;4995010;28;20472;-75
2023/02/12 07:24:33;;;;;;;4.40;3.63;;;17.00;56.10;;;;;;4994770;28;20453;-75
2023/02/12 07:27:03;;;;;;;3.80;3.50;;;17.00;56.00;;;;;;4991393;28;20472;-75
2023/02/12 07:29:31;;;;;;;4.73;3.60;;;17.00;56.10;;;;;;4988327;28;20993;-75
2023/02/12 07:31:59;;;;;;;3.93;3.53;;;17.00;56.10;;;;;;4989660;28;20485;-75
2023/02/12 07:34:27;;;;;;;3.80;3.40;;;17.00;56.00;;;;;;4996549;28;20460;-75
2023/02/12 07:36:55;;;;;;;3.83;3.23;;;17.00;56.10;;;;;;4989427;28;20452;-76
2023/02/12 07:39:23;;;;;;;4.43;4.00;;;17.00;56.20;;;;;;4990752;28;20452;-75
2023/02/12 07:41:51;;;;;;;3.73;3.43;;;17.00;56.20;;;;;;4989382;28;20484;-75
2023/02/12 07:44:20;;;;;;;4.57;3.70;;;17.00;56.20;;;;;;4994801;28;20794;-75
2023/02/12 07:46:48;;;;;;;3.87;3.57;;;17.10;56.10;;;;;;4994658;28;20445;-72
2023/02/12 07:49:17;;;;;;;3.77;3.47;;;17.10;56.10;;;;;;4993661;28;20480;-75
2023/02/12 07:51:45;;;;;;;4.97;3.67;;;17.10;56.00;;;;;;4991452;28;20469;-75
2023/02/12 07:54:14;;;;;;;4.70;3.50;;;17.10;56.10;;;;;;4994508;28;20449;-75
2023/02/12 07:56:45;;;;;;;3.90;3.47;;;17.00;56.00;;;;;;4993389;28;21072;-75
2023/02/12 07:59:15;;;;;;;4.03;3.40;;;17.10;56.10;;;;;;4993411;28;20531;-74
2023/02/12 08:01:46;;;;;;;4.03;3.57;;;17.10;56.00;;;;;;4993905;28;20563;-75
2023/02/12 08:04:14;;;;;;;3.93;3.40;;;17.10;56.00;;;;;;4993478;28;20449;-75
2023/02/12 08:06:43;;;;;;;4.70;4.10;;;17.10;56.00;;;;;;4989129;28;20481;-74
2023/02/12 08:09:11;;;;;;;4.10;3.70;;;17.20;56.10;;;;;;4993118;28;20476;-75
2023/02/12 08:11:39;;;;;;;3.93;3.60;;;17.20;56.10;;;;;;4994395;28;20477;-75
2023/02/12 08:14:07;;;;;;;3.50;3.20;;;17.20;56.20;;;;;;4994091;28;20453;-75
2023/02/12 08:16:36;;;;;;;4.47;3.53;;;17.20;56.00;;;;;;4993567;28;20954;-74
2023/02/12 08:19:06;;;;;;;6.40;3.37;;;17.20;56.00;;;;;;4993641;28;20449;-74
2023/02/12 08:21:47;;;;;;;3.97;3.53;;;17.30;56.60;;;;;;4993613;28;20508;-73
2023/02/12 08:24:14;;;;;;;3.53;3.17;;;17.20;56.00;;;;;;4994439;28;20457;-74
2023/02/12 08:26:43;;;;;;;3.70;3.40;;;17.30;56.00;;;;;;4988294;28;20473;-74
2023/02/12 08:29:12;;;;;;;3.50;3.20;;;17.20;55.90;;;;;;4989298;28;20481;-74
2023/02/12 08:31:41;;;;;;;4.13;3.50;;;17.30;56.00;;;;;;4991892;28;20483;-74
2023/02/12 08:34:15;;;;;;;3.27;2.97;;;17.30;55.90;;;;;;4993376;28;20461;-75
2023/02/12 08:36:43;;;;;;;4.03;2.93;;;17.30;55.90;;;;;;4994125;28;20457;-75
2023/02/12 08:39:11;;;;;;;5.23;3.43;;;17.40;56.00;;;;;;4990045;28;20453;-75
2023/02/12 08:41:41;;;;;;;3.63;3.33;;;17.40;56.00;;;;;;4993038;28;20504;-74
2023/02/12 08:44:08;;;;;;;3.50;3.20;;;17.40;55.90;;;;;;4990654;28;20460;-75
2023/02/12 08:46:37;;;;;;;4.03;3.07;;;17.40;55.90;;;;;;4991272;28;20453;-75
2023/02/12 08:49:06;;;;;;;3.30;3.00;;;17.40;55.80;;;;;;4989405;28;20477;-75
2023/02/12 08:51:36;;;;;;;3.53;3.20;;;17.40;55.70;;;;;;4986500;28;20477;-75
2023/02/12 08:54:05;;;;;;;3.40;3.10;;;17.50;55.90;;;;;;4987461;28;20464;-75
2023/02/12 08:56:34;;;;;;;3.40;3.10;;;17.50;55.90;;;;;;4987081;28;20548;-75
2023/02/12 08:59:02;;;;;;;3.77;3.20;;;17.40;55.80;;;;;;4985030;28;20544;-76
2023/02/12 09:01:32;;;;;;;3.43;3.13;;;17.50;56.00;;;;;;4986363;28;20507;-75
2023/02/12 09:04:00;;;;;;;4.03;3.37;;;17.50;56.00;;;;;;5001740;28;20457;-74
2023/02/12 09:06:28;;;;;;;2.83;2.63;;;17.50;55.90;;;;;;4997159;28;20464;-75
2023/02/12 09:08:57;;;;;;;3.27;2.90;;;17.60;55.90;;;;;;4991808;28;20476;-73
2023/02/12 09:11:29;;;;;;;3.37;3.07;;;17.60;55.90;;;;;;4986673;28;20481;-75
2023/02/12 09:13:58;;;;;;;3.00;2.83;;;17.60;56.00;;;;;;4984936;28;20453;-74
2023/02/12 09:16:26;;;;;;;4.13;3.23;;;17.70;55.90;;;;;;4984508;28;20573;-75
2023/02/12 09:18:54;;;;;;;3.97;3.27;;;17.70;55.80;;;;;;4990200;28;20489;-74
2023/02/12 09:21:22;;;;;;;3.87;3.07;;;17.70;55.90;;;;;;4988709;28;20441;-74
2023/02/12 09:23:50;;;;;;;4.63;3.20;;;17.70;55.90;;;;;;4989718;28;20457;-74
2023/02/12 09:26:20;;;;;;;3.10;2.90;;;17.70;55.80;;;;;;4988129;28;20473;-74
2023/02/12 09:28:48;;;;;;;3.40;3.00;;;17.80;55.90;;;;;;4987773;28;20460;-75
2023/02/12 09:31:19;;;;;;;3.40;3.10;;;17.80;55.80;;;;;;4989033;28;20458;-74
2023/02/12 09:33:47;;;;;;;3.80;3.00;;;17.80;55.80;;;;;;4991809;28;20468;-74
2023/02/12 09:36:20;;;;;;;3.53;3.23;;;17.80;55.70;;;;;;4992197;28;20453;-73
2023/02/12 09:38:48;;;;;;;3.70;3.10;;;17.80;55.60;;;;;;4992459;28;20463;-75
2023/02/12 09:41:43;;;;;;;2.70;2.50;;;17.80;55.70;;;;;;4991813;28;20465;-74
2023/02/12 09:44:15;;;;;;;3.43;3.13;;;17.80;55.60;;;;;;4988632;28;20452;-75
2023/02/12 09:46:45;;;;;;;3.40;3.10;;;17.80;55.70;;;;;;4988257;28;20441;-74
2023/02/12 09:49:15;;;;;;;5.37;3.27;;;17.80;55.50;;;;;;4977487;28;20481;-74
2023/02/12 09:51:46;;;;;;;3.40;3.10;;;17.80;55.60;;;;;;4980760;28;20482;-75
2023/02/12 09:54:19;;;;;;;3.60;3.30;;;17.80;55.50;;;;;;4986246;28;20540;-75
2023/02/12 09:56:49;;;;;;;4.17;3.50;;;17.90;55.60;;;;;;4990934;28;20477;-74
2023/02/12 09:59:30;;;;;;;3.17;2.97;;;17.90;55.50;;;;;;4990306;28;20450;-74
2023/02/12 10:01:59;;;;;;;3.40;3.10;;;17.90;55.50;;;;;;4992413;28;20477;-74
2023/02/12 10:04:27;;;;;;;4.00;3.60;;;17.90;55.60;;;;;;4991530;28;20499;-73
2023/02/12 10:06:59;;;;;;;3.53;3.23;;;17.90;55.60;;;;;;4990626;28;20528;-75
2023/02/12 10:09:35;;;;;;;3.67;3.37;;;17.90;55.60;;;;;;4992444;28;20473;-73
2023/02/12 10:12:07;;;;;;;4.63;3.20;;;17.90;55.80;;;;;;4986853;28;20477;-75
2023/02/12 10:14:46;;;;;;;3.67;3.30;;;17.90;56.30;;;;;;4989784;28;20453;-74
2023/02/12 10:17:18;;;;;;;5.00;3.27;;;17.90;55.80;;;;;;4987453;28;20456;-73
2023/02/12 10:20:31;;;;;;;5.37;3.60;;;18.00;56.00;;;;;;4987681;28;20464;-73
2023/02/12 10:23:06;;;;;;;3.27;2.47;;;18.00;55.80;;;;;;4957478;28;20469;-75
2023/02/12 10:25:36;;;;;;;4.33;3.50;;;18.00;55.70;;;;;;5000088;28;20447;-74
2023/02/12 10:28:09;;;;;;;6.13;3.40;;;18.00;55.70;;;;;;4991338;28;20449;-74
2023/02/12 10:30:40;;;;;;;3.50;3.20;;;18.00;55.80;;;;;;4998158;28;20469;-73
2023/02/12 10:33:13;;;;;;;2.93;2.63;;;18.00;55.70;;;;;;4996052;28;20465;-74
2023/02/12 10:35:43;;;;;;;3.67;2.83;;;18.00;55.70;;;;;;4996091;28;20471;-74
2023/02/12 10:38:14;;;;;;;3.20;3.00;;;18.00;55.80;;;;;;4996253;28;20445;-74
2023/02/12 10:40:43;;;;;;;4.00;3.20;;;18.10;55.80;;;;;;4994970;28;20473;-74
2023/02/12 10:43:12;;;;;;;3.20;2.90;;;18.00;55.80;;;;;;4998465;28;20483;-75
2023/02/12 10:45:42;;;;;;;4.07;3.07;;;18.00;55.90;;;;;;4996665;28;20436;-75
2023/02/12 10:48:11;;;;;;;3.20;2.90;;;18.10;55.90;;;;;;4994585;28;20445;-71
2023/02/12 10:50:44;;;;;;;3.10;2.90;;;18.10;55.90;;;;;;4993656;28;20476;-74
2023/02/12 10:53:16;;;;;;;2.90;2.70;;;18.10;56.00;;;;;;4998286;28;20480;-75
2023/02/12 10:55:43;;;;;;;5.23;3.20;;;18.10;55.90;;;;;;4996239;28;20488;-76
2023/02/12 10:58:19;;;;;;;2.83;2.63;;;18.20;55.90;;;;;;4998663;28;20471;-75
2023/02/12 11:00:49;;;;;;;3.10;2.90;;;18.20;55.90;;;;;;4997517;28;20436;-75
2023/02/12 11:03:21;;;;;;;6.60;3.33;;;18.20;56.00;;;;;;4997943;28;20472;-75
2023/02/12 11:05:49;;;;;;;3.60;3.30;;;18.20;55.90;;;;;;4984345;28;20450;-74
2023/02/12 11:08:33;;;;;;;3.50;3.20;;;18.20;55.90;;;;;;4987418;28;20452;-75
2023/02/12 11:11:07;;;;;;;3.43;3.17;;;18.30;55.80;;;;;;4987320;28;20472;-74
2023/02/12 11:13:37;;;;;;;8.03;3.20;;;18.30;55.90;;;;;;4994746;28;20445;-74
2023/02/12 11:16:05;;;;;;;3.10;2.90;;;18.30;55.90;;;;;;4998991;28;20444;-74
2023/02/12 11:18:35;;;;;;;3.50;3.20;;;18.40;56.00;;;;;;4995351;28;20441;-74
2023/02/12 11:21:05;;;;;;;3.87;3.37;;;18.40;55.90;;;;;;4997210;28;20445;-75
2023/02/12 11:23:34;;;;;;;3.30;2.90;;;18.50;55.90;;;;;;4990708;28;20465;-74
2023/02/12 11:26:03;;;;;;;3.13;2.93;;;18.70;56.00;;;;;;4990897;28;20883;-74
2023/02/12 11:28:31;;;;;;;3.20;2.90;;;18.80;55.60;;;;;;4994703;28;20454;-74
2023/02/12 11:31:01;;;;;;;3.77;2.90;;;18.80;55.40;;;;;;4995046;28;20537;-76
2023/02/12 11:33:31;;;;;;;7.90;3.27;;;18.80;55.20;;;;;;4999043;28;20473;-74
2023/02/12 11:36:01;;;;;;;3.43;3.13;;;18.80;55.30;;;;;;4994834;28;20475;-76
2023/02/12 11:38:35;;;;;;;4.50;3.20;;;18.70;55.20;;;;;;4993030;28;20449;-76
2023/02/12 11:41:07;;;;;;;3.67;3.40;;;18.70;55.20;;;;;;4994244;28;20477;-74
2023/02/12 11:43:38;;;;;;;3.37;3.07;;;18.70;55.20;;;;;;4992817;28;20485;-73
2023/02/12 11:46:08;;;;;;;3.50;3.20;;;18.60;55.20;;;;;;4991692;28;20521;-72
2023/02/12 11:48:37;;;;;;;3.80;3.53;;;18.70;55.20;;;;;;4992199;28;20461;-74
2023/02/12 11:51:08;;;;;;;4.07;3.73;;;18.60;55.10;;;;;;4991112;28;20922;-72
2023/02/12 11:53:39;;;;;;;3.63;3.30;;;18.70;55.30;;;;;;4991938;28;20477;-72
2023/02/12 11:56:08;;;;;;;8.03;3.50;;;18.70;55.10;;;;;;4994345;28;20481;-72
2023/02/12 11:58:36;;;;;;;4.33;3.90;;;18.60;55.10;;;;;;4994060;28;20477;-73
2023/02/12 12:01:08;;;;;;;4.20;3.80;;;18.60;55.30;;;;;;4992972;28;20449;-72
2023/02/12 12:03:41;;;;;;;4.07;3.70;;;18.60;55.30;;;;;;4990832;28;20488;-73
2023/02/12 12:06:20;;;;;;;4.70;3.50;;;18.60;55.20;;;;;;4987107;28;20457;-73
2023/02/12 12:08:49;;;;;;;3.80;3.50;;;18.60;55.20;;;;;;4991800;28;20461;-73
2023/02/12 12:11:19;;;;;;;4.23;3.83;;;18.60;55.30;;;;;;4990953;28;20543;-72
2023/02/12 12:13:49;;;;;;;5.57;4.50;;;18.60;55.20;;;;;;4994444;28;20465;-75
2023/02/12 12:22:11;;;;;;;21.50;6.50;;;19.40;61.70;;;;;;4986628;28;20457;-76
2023/02/12 12:24:41;;;;;;;21.87;6.53;;;19.80;62.10;;;;;;4994319;28;20472;-76
2023/02/12 12:28:01;;;;;;;15.23;6.23;;;20.30;62.10;;;;;;4988096;28;20473;-78
2023/02/12 12:30:05;;;;;;;26.20;6.63;;;20.60;60.90;;;;;;4988923;28;20453;-76
2023/02/12 12:32:35;;;;;;;18.67;6.30;;;21.00;60.50;;;;;;4995203;28;20476;-76
2023/02/12 12:35:04;;;;;;;14.90;6.23;;;21.20;60.10;;;;;;4989884;28;20515;-76
2023/02/12 12:37:34;;;;;;;15.37;5.87;;;21.40;59.80;;;;;;4995793;28;20453;-76
2023/02/12 12:40:23;;;;;;;21.77;6.27;;;21.60;59.60;;;;;;4988562;28;20436;-76
2023/02/12 12:43:11;;;;;;;20.20;6.77;;;21.70;59.20;;;;;;4992636;28;20484;-78
2023/02/12 12:45:56;;;;;;;26.60;8.03;;;21.90;59.10;;;;;;4993150;28;20468;-80
2023/02/12 12:48:34;;;;;;;21.63;6.47;;;22.00;58.70;;;;;;4993590;28;20449;-75
2023/02/12 12:51:10;;;;;;;18.17;6.80;;;22.00;58.70;;;;;;4993694;28;20479;-75
2023/02/12 12:53:48;;;;;;;28.13;6.90;;;22.00;58.70;;;;;;4993596;28;20477;-72
2023/02/12 12:56:26;;;;;;;25.60;6.83;;;22.10;58.20;;;;;;4984629;28;20479;-73
2023/02/12 12:59:06;;;;;;;17.77;6.83;;;22.00;58.20;;;;;;4990623;28;20650;-75
2023/02/12 13:01:56;;;;;;;17.23;6.60;;;21.90;59.10;;;;;;4980386;28;20437;-74
2023/02/12 13:04:51;;;;;;;21.90;7.50;;;21.80;60.30;;;;;;4990790;28;20441;-75
2023/02/12 13:07:26;;;;;;;24.57;8.03;;;21.70;61.40;;;;;;4989470;28;20442;-73
2023/02/12 13:10:14;;;;;;;28.50;9.43;;;21.60;62.30;;;;;;4987183;28;20483;-76